sensor_id;sensor_type;location;lat;lon;timestamp;temperature;humidity
33428;DHT22;19769;48.150;16.306;2022-10-23T08:43:53;16.30;99.90
33428;DHT22;19769;48.150;16.306;2022-10-23T08:46:35;20.90;91.20
33428;DHT22;19769;48.150;16.306;2022-10-23T08:59:51;20.80;90.20
33428;DHT22;19769;48.150;16.306;2022-10-23T09:02:48;21.80;86.50
33428;DHT22;19769;48.150;16.306;2022-10-23T09:05:26;22.00;85.30
33428;DHT22;19769;48.150;16.306;2022-10-23T09:08:38;22.30;82.60
33428;DHT22;19769;48.150;16.306;2022-10-23T09:11:31;22.60;80.90
33428;DHT22;19769;48.150;16.306;2022-10-23T09:17:12;22.90;78.50
33428;DHT22;19769;48.150;16.306;2022-10-23T09:19:43;23.10;79.00
33428;DHT22;19769;48.150;16.306;2022-10-23T09:22:10;23.20;77.20
33428;DHT22;19769;48.150;16.306;2022-10-23T09:24:37;23.40;77.10
33428;DHT22;19769;48.150;16.306;2022-10-23T09:27:14;23.60;75.90
33428;DHT22;19769;48.150;16.306;2022-10-23T09:29:53;23.80;73.40
33428;DHT22;19769;48.150;16.306;2022-10-23T09:32:35;24.00;72.50
33428;DHT22;19769;48.150;16.306;2022-10-23T09:35:02;24.10;71.30
33428;DHT22;19769;48.150;16.306;2022-10-23T09:37:31;24.10;70.40
33428;DHT22;19769;48.150;16.306;2022-10-23T09:45:33;24.00;69.90
33428;DHT22;19769;48.150;16.306;2022-10-23T09:48:14;24.30;67.20
33428;DHT22;19769;48.150;16.306;2022-10-23T09:51:01;24.50;66.80
33428;DHT22;19769;48.150;16.306;2022-10-23T09:53:52;24.80;66.90
33428;DHT22;19769;48.150;16.306;2022-10-23T09:56:39;25.10;64.30
33428;DHT22;19769;48.150;16.306;2022-10-23T10:01:51;25.90;61.70
33428;DHT22;19769;48.150;16.306;2022-10-23T10:04:39;26.00;60.90
33428;DHT22;19769;48.150;16.306;2022-10-23T10:07:22;26.10;59.60
33428;DHT22;19769;48.150;16.306;2022-10-23T10:09:49;26.50;59.00
33428;DHT22;19769;48.150;16.306;2022-10-23T10:25:36;27.10;56.10
33428;DHT22;19769;48.150;16.306;2022-10-23T11:04:17;29.90;47.70
33428;DHT22;19769;48.150;16.306;2022-10-23T11:06:50;35.70;35.80
33428;DHT22;19769;48.150;16.306;2022-10-23T11:14:21;35.70;35.30
33428;DHT22;19769;48.150;16.306;2022-10-23T11:19:39;35.70;34.80
33428;DHT22;19769;48.150;16.306;2022-10-23T11:22:22;36.40;34.80
33428;DHT22;19769;48.150;16.306;2022-10-23T11:30:03;36.40;34.10
33428;DHT22;19769;48.150;16.306;2022-10-23T11:38:07;37.10;33.00
33428;DHT22;19769;48.150;16.306;2022-10-23T11:40:44;36.80;33.70
33428;DHT22;19769;48.150;16.306;2022-10-23T11:43:11;35.70;34.20
33428;DHT22;19769;48.150;16.306;2022-10-23T11:45:39;36.40;34.00
33428;DHT22;19769;48.150;16.306;2022-10-23T11:48:21;36.80;33.70
33428;DHT22;19769;48.150;16.306;2022-10-23T11:56:22;36.30;33.80
33428;DHT22;19769;48.150;16.306;2022-10-23T11:58:51;35.90;34.20
33428;DHT22;19769;48.150;16.306;2022-10-23T12:01:38;35.20;35.00
33428;DHT22;19769;48.150;16.306;2022-10-23T13:00:17;34.70;35.30
33428;DHT22;19769;48.150;16.306;2022-10-23T13:15:41;25.90;53.80
33428;DHT22;19769;48.150;16.306;2022-10-23T13:18:09;25.40;52.90
33428;DHT22;19769;48.150;16.306;2022-10-23T14:15:20;25.00;56.20
33428;DHT22;19769;48.150;16.306;2022-10-23T14:17:46;24.30;56.30
33428;DHT22;19769;48.150;16.306;2022-10-23T14:20:12;23.00;58.20
33428;DHT22;19769;48.150;16.306;2022-10-23T14:25:04;22.10;60.70
33428;DHT22;19769;48.150;16.306;2022-10-23T14:27:30;20.70;66.10
33428;DHT22;19769;48.150;16.306;2022-10-23T14:29:56;20.10;68.50
33428;DHT22;19769;48.150;16.306;2022-10-23T14:32:23;19.70;72.20
33428;DHT22;19769;48.150;16.306;2022-10-23T14:34:51;19.40;76.20
33428;DHT22;19769;48.150;16.306;2022-10-23T14:37:18;19.20;82.10
33428;DHT22;19769;48.150;16.306;2022-10-23T14:39:45;19.10;87.30
33428;DHT22;19769;48.150;16.306;2022-10-23T14:42:12;18.90;91.50
33428;DHT22;19769;48.150;16.306;2022-10-23T14:44:38;18.90;93.10
33428;DHT22;19769;48.150;16.306;2022-10-23T14:47:04;18.90;94.40
33428;DHT22;19769;48.150;16.306;2022-10-23T14:49:31;18.80;95.80
33428;DHT22;19769;48.150;16.306;2022-10-23T14:51:58;18.70;97.00
33428;DHT22;19769;48.150;16.306;2022-10-23T14:54:23;18.60;98.00
33428;DHT22;19769;48.150;16.306;2022-10-23T14:56:49;18.50;99.00
33428;DHT22;19769;48.150;16.306;2022-10-23T14:59:15;18.40;99.90
33428;DHT22;19769;48.150;16.306;2022-10-23T15:01:43;18.20;99.90
33428;DHT22;19769;48.150;16.306;2022-10-23T15:04:09;18.00;99.90
33428;DHT22;19769;48.150;16.306;2022-10-23T15:06:35;17.90;99.90
33428;DHT22;19769;48.150;16.306;2022-10-23T15:09:02;17.70;99.90
33428;DHT22;19769;48.150;16.306;2022-10-23T15:11:29;17.60;99.90
33428;DHT22;19769;48.150;16.306;2022-10-23T15:13:55;17.40;99.90
33428;DHT22;19769;48.150;16.306;2022-10-23T15:16:23;17.30;99.90
33428;DHT22;19769;48.150;16.306;2022-10-23T15:18:49;17.20;99.90
33428;DHT22;19769;48.150;16.306;2022-10-23T15:21:16;17.00;99.90
33428;DHT22;19769;48.150;16.306;2022-10-23T15:23:44;16.90;99.90
33428;DHT22;19769;48.150;16.306;2022-10-23T15:26:19;16.80;99.90
33428;DHT22;19769;48.150;16.306;2022-10-23T15:46:42;16.60;99.90
33428;DHT22;19769;48.150;16.306;2022-10-23T15:49:10;15.80;99.90
33428;DHT22;19769;48.150;16.306;2022-10-23T15:51:37;15.70;99.90
33428;DHT22;19769;48.150;16.306;2022-10-23T15:54:09;15.70;99.90
33428;DHT22;19769;48.150;16.306;2022-10-23T15:56:37;15.60;99.90
33428;DHT22;19769;48.150;16.306;2022-10-23T15:59:03;15.60;99.90
33428;DHT22;19769;48.150;16.306;2022-10-23T16:01:29;15.60;99.90
33428;DHT22;19769;48.150;16.306;2022-10-23T16:03:55;15.60;99.90
33428;DHT22;19769;48.150;16.306;2022-10-23T16:06:22;15.50;99.90
33428;DHT22;19769;48.150;16.306;2022-10-23T16:08:50;15.50;99.90
33428;DHT22;19769;48.150;16.306;2022-10-23T16:11:20;15.50;99.90
33428;DHT22;19769;48.150;16.306;2022-10-23T16:13:46;15.50;99.90
33428;DHT22;19769;48.150;16.306;2022-10-23T16:16:13;15.50;99.90
33428;DHT22;19769;48.150;16.306;2022-10-23T16:18:41;15.50;99.90
33428;DHT22;19769;48.150;16.306;2022-10-23T16:21:23;15.50;99.90
33428;DHT22;19769;48.150;16.306;2022-10-23T16:23:52;15.50;99.90
33428;DHT22;19769;48.150;16.306;2022-10-23T16:26:20;15.50;99.90
